Time;durP1;ratioP1;P1;durP2;ratioP2;P2;SDS_P1;SDS_P2;PMS_P1;PMS_P2;Temp;Humidity;BMP_temperature;BMP_pressure;BME280_temperature;BME280_humidity;BME280_pressure;Samples;Min_cycle;Max_cycle;Signal;HPM_P1;HPM_P2
2022/07/22 00:01:38;;;;;;;10.40;4.90;;;;;;;18.94;72.80;98593.23;25105;1319;3028494;-68
2022/07/22 00:04:07;;;;;;;14.30;5.00;;;;;;;18.78;73.33;98593.19;25067;1319;3026513;-72
2022/07/22 00:06:36;;;;;;;9.40;3.50;;;;;;;18.61;74.92;98589.55;25067;1317;3050505;-68
2022/07/22 00:09:06;;;;;;;8.60;3.60;;;;;;;18.95;74.17;98583.03;25032;1319;3026623;-67
2022/07/22 00:11:36;;;;;;;11.90;4.00;;;;;;;19.14;73.08;98583.23;25046;1319;3026927;-67
2022/07/22 00:14:09;;;;;;;9.30;3.70;;;;;;;18.92;73.70;98587.45;25125;1319;3028951;-70
2022/07/22 00:16:40;;;;;;;6.20;3.30;;;;;;;18.76;74.45;98589.51;25067;1318;3028015;-68
2022/07/22 00:19:10;;;;;;;6.50;3.10;;;;;;;18.51;75.34;98585.45;25068;1319;3027117;-69
2022/07/22 00:21:39;;;;;;;5.10;2.80;;;;;;;18.31;76.72;98578.48;25047;1319;3026881;-68
2022/07/22 00:24:09;;;;;;;9.30;3.10;;;;;;;18.71;75.48;98581.16;25069;1319;3026400;-69
2022/07/22 00:26:38;;;;;;;8.00;3.00;;;;;;;18.81;74.79;98583.79;25019;1319;3026856;-65
2022/07/22 00:29:07;;;;;;;6.80;3.60;;;;;;;18.66;75.31;98591.05;25436;1316;3026341;-65
2022/07/22 00:31:37;;;;;;;9.00;3.50;;;;;;;18.45;76.22;98592.56;25123;1319;3068205;-67
2022/07/22 00:34:06;;;;;;;8.60;2.90;;;;;;;18.32;76.77;98591.02;25129;1319;3026176;-69
2022/07/22 00:36:35;;;;;;;5.40;2.50;;;;;;;18.13;77.42;98600.42;25144;1319;3026585;-73
2022/07/22 00:39:05;;;;;;;5.00;2.70;;;;;;;18.55;76.71;98595.96;25102;1319;3068906;-66
2022/07/22 00:41:34;;;;;;;4.70;2.90;;;;;;;18.68;75.92;98596.03;25059;1319;3026189;-68
2022/07/22 00:44:05;;;;;;;6.00;3.30;;;;;;;18.46;76.51;98595.73;25109;1319;3049683;-70
2022/07/22 00:46:35;;;;;;;7.80;3.00;;;;;;;18.36;76.87;98601.70;25009;1319;3026651;-65
2022/07/22 00:49:05;;;;;;;7.70;3.20;;;;;;;18.14;78.03;98598.02;25062;1316;3028554;-66
2022/07/22 00:51:34;;;;;;;5.30;3.40;;;;;;;18.50;77.27;98592.10;25129;1319;3026824;-69
2022/07/22 00:54:03;;;;;;;6.20;3.90;;;;;;;18.76;76.00;98596.16;25148;1317;3026023;-67
2022/07/22 00:56:32;;;;;;;6.80;3.90;;;;;;;18.64;76.31;98601.38;25062;1318;3049768;-65
2022/07/22 00:59:04;;;;;;;5.40;4.00;;;;;;;18.43;77.35;98598.16;25074;1319;3028774;-68
2022/07/22 01:01:33;;;;;;;7.00;3.00;;;;;;;18.31;78.43;98599.63;25088;1320;3027245;-69
2022/07/22 01:04:03;;;;;;;7.70;3.20;;;;;;;18.71;76.74;98603.27;25101;1319;3026533;-67
2022/07/22 01:06:32;;;;;;;8.40;3.20;;;;;;;18.74;76.51;98600.21;25071;1316;3027388;-68
2022/07/22 01:09:02;;;;;;;7.80;3.30;;;;;;;18.49;77.22;98610.64;25092;1319;3026611;-72
2022/07/22 01:11:31;;;;;;;8.90;3.20;;;;;;;18.23;78.28;98611.77;25133;1319;3026774;-67
2022/07/22 01:14:00;;;;;;;4.30;2.30;;;;;;;18.18;78.26;98604.15;25045;1318;3026482;-69
2022/07/22 01:16:30;;;;;;;6.70;2.60;;;;;;;18.53;77.63;98599.88;25075;1317;3026534;-69
2022/07/22 01:18:59;;;;;;;6.60;3.20;;;;;;;18.55;77.36;98601.67;25039;1318;3050435;-69
2022/07/22 01:21:28;;;;;;;6.80;3.80;;;;;;;18.61;76.13;98600.65;25035;1318;3026998;-74
2022/07/22 01:23:59;;;;;;;8.90;3.70;;;;;;;18.25;77.55;98603.23;25025;1319;3026557;-69
2022/07/22 01:26:28;;;;;;;6.10;3.30;;;;;;;18.10;78.03;98604.10;25080;1319;3027739;-69
2022/07/22 01:29:00;;;;;;;8.90;3.70;;;;;;;18.45;77.00;98594.05;25006;1318;3028062;-67
2022/07/22 01:31:30;;;;;;;5.70;3.60;;;;;;;18.36;77.04;98601.56;25083;1319;3026697;-72
2022/07/22 01:33:59;;;;;;;7.00;4.30;;;;;;;18.38;77.28;98604.55;25074;1318;3054231;-71
2022/07/22 01:36:30;;;;;;;6.10;4.00;;;;;;;18.22;77.85;98599.71;25127;1318;3027581;-71
2022/07/22 01:38:59;;;;;;;8.40;3.30;;;;;;;18.13;78.40;98601.86;25062;1318;3027177;-71
2022/07/22 01:41:28;;;;;;;6.70;4.20;;;;;;;18.44;77.62;98599.27;25032;1319;3029351;-66
2022/07/22 01:43:58;;;;;;;8.50;3.80;;;;;;;18.80;75.92;98601.30;25142;1316;3054736;-67
2022/07/22 01:46:27;;;;;;;8.80;4.60;;;;;;;18.57;76.57;98605.56;25051;1318;3026295;-72
2022/07/22 01:48:57;;;;;;;8.40;4.70;;;;;;;18.33;77.57;98607.34;25188;1315;3052371;-67
2022/07/22 01:51:28;;;;;;;7.00;4.30;;;;;;;18.07;78.55;98606.42;25116;1316;3026942;-74
2022/07/22 01:53:57;;;;;;;7.90;4.20;;;;;;;17.86;79.93;98611.02;25134;1315;3028877;-69
2022/07/22 01:56:28;;;;;;;10.60;5.20;;;;;;;18.38;77.83;98604.02;25103;1315;3053293;-71
2022/07/22 01:58:56;;;;;;;11.60;6.60;;;;;;;18.74;76.26;98607.23;25107;1316;3028342;-67
2022/07/22 02:01:30;;;;;;;10.20;6.50;;;;;;;18.41;76.90;98608.88;25150;1316;3057960;-68
2022/07/22 02:04:00;;;;;;;13.50;7.70;;;;;;;18.05;77.92;98608.54;25127;1316;3027464;-66
2022/07/22 02:06:30;;;;;;;9.80;5.90;;;;;;;17.84;79.25;98607.02;25141;1315;3026936;-74
2022/07/22 02:09:02;;;;;;;10.40;4.20;;;;;;;17.83;79.12;98606.04;25086;1316;3059456;-67
2022/07/22 02:11:37;;;;;;;9.40;4.40;;;;;;;18.22;77.85;98605.70;25152;1315;3050104;-66
2022/07/22 02:14:09;;;;;;;6.00;3.70;;;;;;;18.19;77.83;98608.38;25131;1315;3028489;-66
2022/07/22 02:16:39;;;;;;;7.00;4.10;;;;;;;18.01;78.62;98606.36;25124;1315;3027000;-70
2022/07/22 02:19:08;;;;;;;6.60;3.60;;;;;;;17.93;78.50;98611.72;25093;1316;3026636;-67
2022/07/22 02:21:38;;;;;;;8.00;3.50;;;;;;;17.77;79.42;98604.50;25112;1316;3052462;-70
2022/07/22 02:24:08;;;;;;;5.30;3.60;;;;;;;18.12;78.46;98608.89;25133;1316;3028517;-66
2022/07/22 02:26:40;;;;;;;7.70;4.50;;;;;;;18.17;78.06;98608.75;25145;1314;3026571;-68
2022/07/22 02:29:09;;;;;;;9.90;4.90;;;;;;;18.02;78.07;98607.30;25137;1315;3026950;-67
2022/07/22 02:31:38;;;;;;;10.60;5.60;;;;;;;17.77;79.40;98601.89;25134;1315;3026722;-71
2022/07/22 02:34:10;;;;;;;9.40;4.40;;;;;;;17.60;80.47;98606.98;25121;1316;3071423;-67
2022/07/22 02:36:39;;;;;;;10.20;6.10;;;;;;;17.89;79.71;98607.91;25097;1315;3026508;-67
2022/07/22 02:39:10;;;;;;;8.80;5.30;;;;;;;18.16;78.04;98607.77;25128;1315;3026964;-68
2022/07/22 02:41:39;;;;;;;15.90;6.20;;;;;;;18.17;77.43;98609.11;25142;1315;3026574;-68
2022/07/22 02:44:08;;;;;;;8.30;5.40;;;;;;;17.80;79.21;98612.06;25110;1315;3028559;-68
2022/07/22 02:46:37;;;;;;;9.50;4.90;;;;;;;17.78;79.35;98609.58;25169;1316;3051661;-70
2022/07/22 02:49:17;;;;;;;10.20;5.80;;;;;;;17.92;79.17;98616.63;25101;1315;3055135;-67
2022/07/22 02:51:46;;;;;;;8.70;5.70;;;;;;;18.07;78.60;98619.16;25172;1316;3026368;-69
2022/07/22 02:54:15;;;;;;;8.20;6.00;;;;;;;17.88;79.14;98616.35;25128;1315;3026519;-68
2022/07/22 02:56:44;;;;;;;11.40;8.00;;;;;;;17.62;80.35;98624.46;25066;1315;3051985;-70
2022/07/22 02:59:17;;;;;;;12.70;6.40;;;;;;;17.55;80.52;98625.26;25124;1316;3029137;-66
2022/07/22 03:01:45;;;;;;;15.90;6.70;;;;;;;18.01;79.54;98621.39;25147;1315;3028713;-72
2022/07/22 03:04:15;;;;;;;11.90;6.00;;;;;;;17.97;78.65;98622.89;25094;1315;3054286;-66
2022/07/22 03:06:47;;;;;;;10.60;6.20;;;;;;;17.79;79.69;98630.38;25185;1315;3026602;-72
2022/07/22 03:09:20;;;;;;;12.10;6.40;;;;;;;17.63;80.56;98630.77;25136;1315;3026112;-69
2022/07/22 03:11:50;;;;;;;8.40;5.00;;;;;;;17.60;80.60;98631.79;25097;1315;3026357;-69
2022/07/22 03:14:21;;;;;;;9.10;5.30;;;;;;;18.06;79.44;98630.39;25174;1316;3026787;-68
2022/07/22 03:16:51;;;;;;;9.10;5.70;;;;;;;18.06;79.15;98632.23;25119;1315;3052128;-74
2022/07/22 03:19:20;;;;;;;10.70;6.50;;;;;;;17.92;79.45;98634.48;25125;1316;3026673;-66
2022/07/22 03:21:51;;;;;;;10.30;6.10;;;;;;;17.89;79.70;98632.38;25156;1315;3026581;-66
2022/07/22 03:24:20;;;;;;;9.00;5.60;;;;;;;17.76;80.17;98629.44;25095;1315;3028140;-73
2022/07/22 03:26:51;;;;;;;10.60;6.50;;;;;;;18.20;79.13;98637.59;25110;1315;3051640;-70
2022/07/22 03:29:20;;;;;;;11.90;8.50;;;;;;;18.18;78.80;98635.77;25058;1315;3026491;-69
2022/07/22 03:31:51;;;;;;;16.40;9.40;;;;;;;17.98;79.33;98636.95;25140;1316;3051511;-72
2022/07/22 03:34:27;;;;;;;13.60;9.40;;;;;;;17.73;80.63;98639.26;25126;1316;3052742;-71
2022/07/22 03:37:02;;;;;;;13.40;8.40;;;;;;;17.70;81.05;98634.98;25175;1314;3053838;-69
2022/07/22 03:39:31;;;;;;;12.40;8.00;;;;;;;18.12;80.34;98637.10;25099;1316;3026477;-70
2022/07/22 03:42:00;;;;;;;10.10;6.10;;;;;;;18.24;78.84;98644.96;25078;1315;3026739;-73
2022/07/22 03:44:30;;;;;;;10.00;7.00;;;;;;;17.98;79.49;98640.13;25073;1315;3053070;-72
2022/07/22 03:47:00;;;;;;;9.20;5.70;;;;;;;17.79;80.28;98637.96;25073;1316;3028681;-71
2022/07/22 03:49:31;;;;;;;6.40;5.20;;;;;;;17.69;81.53;98644.18;25115;1315;3028037;-71
2022/07/22 03:52:01;;;;;;;8.90;5.50;;;;;;;17.91;80.61;98647.54;25125;1316;3026045;-67
2022/07/22 03:54:31;;;;;;;10.40;5.90;;;;;;;17.84;80.83;98645.07;25147;1316;3026650;-75
2022/07/22 03:57:00;;;;;;;10.20;6.60;;;;;;;17.67;81.79;98640.26;25129;1315;3026909;-71
2022/07/22 03:59:30;;;;;;;11.50;5.10;;;;;;;17.65;81.94;98641.91;25097;1316;3054180;-71
2022/07/22 04:01:59;;;;;;;10.60;5.70;;;;;;;18.16;79.73;98642.80;25135;1316;3026222;-70
2022/07/22 04:04:28;;;;;;;8.20;5.80;;;;;;;18.32;79.18;98642.44;25131;1315;3047806;-73
2022/07/22 04:06:57;;;;;;;9.10;5.40;;;;;;;18.17;79.56;98640.21;25150;1315;3028203;-70
2022/07/22 04:09:32;;;;;;;10.50;5.40;;;;;;;17.91;80.28;98645.08;25160;1316;3071563;-76
2022/07/22 04:12:03;;;;;;;9.20;4.60;;;;;;;17.87;80.44;98643.50;25104;1314;3028052;-68
2022/07/22 04:14:43;;;;;;;11.20;5.40;;;;;;;18.34;78.89;98646.48;25195;1316;3054349;-72
2022/07/22 04:17:12;;;;;;;14.10;5.20;;;;;;;18.20;79.07;98652.14;25110;1316;3026713;-69
2022/07/22 04:19:41;;;;;;;11.10;5.50;;;;;;;18.18;79.23;98646.48;25115;1316;3028403;-69
2022/07/22 04:22:21;;;;;;;10.50;4.70;;;;;;;17.94;80.21;98651.84;25142;1316;3053040;-73
2022/07/22 04:24:52;;;;;;;6.80;3.90;;;;;;;18.00;80.28;98649.85;25127;1315;3028880;-70
2022/07/22 04:27:21;;;;;;;8.40;4.50;;;;;;;18.48;78.30;98654.54;25123;1315;3027054;-74
2022/07/22 04:29:51;;;;;;;7.10;5.30;;;;;;;18.69;77.29;98655.08;25073;1315;3028509;-68
2022/07/22 04:32:20;;;;;;;9.90;4.50;;;;;;;18.48;77.76;98662.70;25145;1315;3026415;-70
2022/07/22 04:34:50;;;;;;;7.80;5.00;;;;;;;18.12;79.34;98664.05;25170;1315;3026768;-67
2022/07/22 04:37:19;;;;;;;7.40;4.00;;;;;;;17.88;80.42;98666.31;25121;1315;3026386;-70
2022/07/22 04:39:48;;;;;;;14.20;4.90;;;;;;;18.24;79.18;98667.01;25135;1315;3048987;-67
2022/07/22 04:42:17;;;;;;;6.40;5.00;;;;;;;18.46;78.14;98672.45;25158;1315;3026481;-66
2022/07/22 04:44:47;;;;;;;11.60;5.70;;;;;;;18.36;78.20;98677.77;25092;1315;3070385;-65
2022/07/22 04:47:16;;;;;;;6.80;4.90;;;;;;;18.13;78.82;98676.88;25137;1315;3026538;-68
2022/07/22 04:49:46;;;;;;;9.40;3.80;;;;;;;18.17;79.19;98679.75;25116;1315;3051216;-68
2022/07/22 04:52:15;;;;;;;7.20;4.50;;;;;;;18.69;77.60;98685.09;25135;1315;3026338;-64
2022/07/22 04:54:49;;;;;;;8.60;4.90;;;;;;;18.86;76.23;98686.71;25136;1315;3053038;-70
2022/07/22 04:57:19;;;;;;;7.30;4.40;;;;;;;18.74;76.80;98685.09;25192;1316;3026885;-72
2022/07/22 04:59:49;;;;;;;7.00;5.00;;;;;;;18.52;77.13;98688.17;25137;1315;3027014;-69
2022/07/22 05:02:23;;;;;;;9.30;4.90;;;;;;;18.48;77.75;98689.17;25105;1316;3026684;-72
2022/07/22 05:04:52;;;;;;;5.90;4.40;;;;;;;18.48;78.03;98688.57;25128;1315;3027040;-69
2022/07/22 05:07:21;;;;;;;8.00;5.60;;;;;;;18.92;76.34;98691.73;25122;1315;3029016;-70
2022/07/22 05:09:52;;;;;;;8.40;6.00;;;;;;;18.86;75.71;98689.77;25110;1316;3048022;-69
2022/07/22 05:12:21;;;;;;;9.80;6.00;;;;;;;18.91;75.71;98690.20;25178;1316;3026995;-73
2022/07/22 05:14:51;;;;;;;11.50;6.40;;;;;;;18.81;75.39;98684.40;25122;1316;3026342;-70
2022/07/22 05:17:20;;;;;;;8.10;5.80;;;;;;;18.76;75.34;98692.18;25175;1315;3026379;-74
2022/07/22 05:20:10;;;;;;;5.60;4.30;;;;;;;18.72;75.62;98697.42;25066;1315;3055667;-72
2022/07/22 05:22:43;;;;;;;12.50;5.20;;;;;;;19.33;73.21;98694.06;25100;1316;3052047;-68
2022/07/22 05:25:16;;;;;;;9.80;6.20;;;;;;;19.41;72.15;98695.81;25098;1316;3056903;-66
2022/07/22 05:27:54;;;;;;;9.10;5.90;;;;;;;19.24;72.35;98699.27;25088;1315;3027048;-70
2022/07/22 05:30:27;;;;;;;8.70;6.00;;;;;;;18.82;73.38;98706.05;25113;1316;3053736;-71
2022/07/22 05:32:57;;;;;;;8.90;5.10;;;;;;;18.56;74.16;98700.35;25163;1315;3026393;-70
2022/07/22 05:35:50;;;;;;;6.60;5.00;;;;;;;18.22;74.37;98704.62;25122;1315;3068847;-73
2022/07/22 05:38:21;;;;;;;6.60;4.60;;;;;;;18.38;74.02;98705.79;25137;1316;3028756;-70
2022/07/22 05:40:50;;;;;;;8.50;4.90;;;;;;;18.87;72.01;98707.83;25137;1314;3026469;-74
2022/07/22 05:43:19;;;;;;;9.70;5.20;;;;;;;18.99;71.03;98711.81;25134;1316;3026628;-74
2022/07/22 05:45:48;;;;;;;5.80;4.50;;;;;;;18.91;71.13;98714.77;25101;1315;3050294;-71
2022/07/22 05:48:18;;;;;;;7.30;3.90;;;;;;;18.77;70.45;98704.61;25113;1316;3029021;-75
2022/07/22 05:50:47;;;;;;;9.10;4.60;;;;;;;18.43;70.56;98706.64;25087;1316;3070629;-67
2022/07/22 05:53:16;;;;;;;5.20;4.40;;;;;;;18.28;70.80;98697.79;25140;1315;3029476;-72
2022/07/22 05:55:46;;;;;;;4.20;3.80;;;;;;;18.23;70.59;98695.95;25098;1315;3026930;-69
2022/07/22 05:58:19;;;;;;;6.70;4.10;;;;;;;18.41;70.75;98696.73;25081;1316;3054919;-69
2022/07/22 06:00:48;;;;;;;7.20;3.40;;;;;;;18.84;68.83;98702.33;25142;1315;3026509;-67
2022/07/22 06:03:17;;;;;;;4.70;3.70;;;;;;;19.24;67.84;98706.98;25172;1315;3027007;-71
2022/07/22 06:05:46;;;;;;;8.60;3.80;;;;;;;19.37;66.94;98703.41;25173;1316;3051963;-64
2022/07/22 06:08:16;;;;;;;6.20;3.60;;;;;;;19.16;66.73;98706.39;25244;1315;3026250;-71
2022/07/22 06:10:50;;;;;;;3.60;2.90;;;;;;;18.92;66.97;98708.40;25141;1315;3052345;-72
2022/07/22 06:13:20;;;;;;;5.30;3.70;;;;;;;18.76;67.59;98716.52;25253;1315;3026833;-67
2022/07/22 06:15:49;;;;;;;3.90;3.20;;;;;;;18.74;67.91;98718.66;25183;1314;3056691;-69
2022/07/22 06:18:20;;;;;;;5.20;3.50;;;;;;;18.67;68.54;98723.63;25122;1315;3026940;-68
2022/07/22 06:20:49;;;;;;;6.30;3.10;;;;;;;18.69;68.64;98714.42;25090;1316;3027112;-69
2022/07/22 06:23:18;;;;;;;3.90;2.30;;;;;;;18.76;68.75;98719.11;25223;1316;3026421;-70
2022/07/22 06:25:47;;;;;;;6.80;3.10;;;;;;;19.22;67.30;98723.23;25121;1315;3027050;-67
2022/07/22 06:28:37;;;;;;;5.60;3.50;;;;;;;19.41;66.69;98719.13;25166;1315;3052139;-73
2022/07/22 06:31:06;;;;;;;4.10;3.50;;;;;;;19.47;66.41;98719.33;25200;1316;3026021;-70
2022/07/22 06:33:36;;;;;;;10.30;3.50;;;;;;;19.52;66.35;98719.45;25228;1315;3070983;-73
2022/07/22 06:36:05;;;;;;;5.90;3.40;;;;;;;19.61;66.35;98720.86;25139;1316;3029362;-69
2022/07/22 06:38:37;;;;;;;6.00;3.20;;;;;;;19.58;66.43;98719.03;25139;1315;3051652;-75
2022/07/22 06:41:25;;;;;;;6.20;3.40;;;;;;;19.67;66.66;98724.86;25134;1315;3069868;-70
2022/07/22 06:44:03;;;;;;;7.10;4.10;;;;;;;19.53;67.26;98726.88;25183;1315;3051952;-66
2022/07/22 06:46:47;;;;;;;5.80;3.70;;;;;;;19.30;68.37;98722.92;25169;1315;3053165;-67
2022/07/22 06:49:18;;;;;;;5.70;3.20;;;;;;;19.38;68.62;98727.81;25282;1315;3026429;-76
2022/07/22 06:51:47;;;;;;;6.40;3.40;;;;;;;19.81;67.08;98727.16;25200;1315;3025739;-70
2022/07/22 06:54:17;;;;;;;7.60;3.30;;;;;;;19.89;65.65;98730.89;25158;1315;3054315;-72
2022/07/22 06:56:46;;;;;;;4.30;3.10;;;;;;;19.72;66.34;98739.77;25139;1315;3026423;-72
2022/07/22 06:59:20;;;;;;;5.10;3.10;;;;;;;19.44;67.07;98735.64;25166;1315;3048554;-68
2022/07/22 07:01:49;;;;;;;5.30;3.40;;;;;;;19.30;67.69;98737.88;25221;1315;3026346;-71
2022/07/22 07:04:20;;;;;;;6.60;3.80;;;;;;;19.35;68.06;98730.45;25242;1315;3069574;-70
2022/07/22 07:06:49;;;;;;;5.00;3.20;;;;;;;19.52;67.77;98728.89;25338;1315;3026651;-73
2022/07/22 07:09:56;;;;;;;5.40;3.40;;;;;;;19.82;67.10;98726.34;24973;1321;3051715;-65
2022/07/22 07:12:32;;;;;;;4.90;2.60;;;;;;;19.91;65.00;98723.21;24997;1322;3069219;-65
2022/07/22 07:15:27;;;;;;;3.50;2.20;;;;;;;19.71;63.30;98724.41;25031;1316;3052216;-65
2022/07/22 07:17:59;;;;;;;5.40;2.40;;;;;;;19.55;63.89;98729.36;25037;1316;3027005;-67
2022/07/22 07:20:29;;;;;;;3.80;2.40;;;;;;;19.52;63.84;98733.94;25192;1315;3027448;-70
2022/07/22 07:23:02;;;;;;;4.60;2.50;;;;;;;19.39;63.84;98735.48;25109;1315;3026462;-63
2022/07/22 07:25:32;;;;;;;3.50;2.50;;;;;;;19.45;64.74;98734.84;25073;1315;3049819;-66
2022/07/22 07:28:02;;;;;;;4.00;2.60;;;;;;;19.59;65.51;98730.30;25186;1316;3025945;-68
2022/07/22 07:30:51;;;;;;;5.00;2.50;;;;;;;19.65;65.64;98729.69;25082;1315;3054444;-67
2022/07/22 07:33:21;;;;;;;3.20;2.40;;;;;;;19.73;65.42;98732.33;25140;1315;3026867;-70
2022/07/22 07:35:50;;;;;;;4.60;2.50;;;;;;;20.26;61.94;98727.69;25140;1315;3026577;-68
2022/07/22 07:38:24;;;;;;;;;;;;;;;20.50;61.20;98732.94;25113;1316;3055018;-66
2022/07/22 07:40:54;;;;;;;3.30;2.10;;;;;;;20.43;61.44;98738.57;25097;1315;3026883;-66
2022/07/22 07:43:24;;;;;;;4.80;2.80;;;;;;;20.36;61.51;98737.64;25171;1315;3028188;-66
2022/07/22 07:45:53;;;;;;;6.40;2.50;;;;;;;20.21;62.73;98736.23;25010;1315;3027261;-65
2022/07/22 07:48:23;;;;;;;14.70;3.30;;;;;;;19.98;63.55;98745.58;25071;1316;3026113;-65
2022/07/22 07:50:52;;;;;;;3.60;2.70;;;;;;;19.75;64.00;98748.09;25108;1315;3026432;-63
2022/07/22 07:53:21;;;;;;;11.90;3.70;;;;;;;19.59;65.42;98745.73;25131;1316;3026563;-65
2022/07/22 07:55:50;;;;;;;6.20;3.30;;;;;;;19.73;65.07;98746.15;25092;1315;3054933;-66
2022/07/22 07:58:19;;;;;;;5.00;2.90;;;;;;;19.90;63.56;98755.48;25110;1316;3026658;-65
2022/07/22 08:00:49;;;;;;;7.80;4.30;;;;;;;19.92;63.06;98748.77;25098;1316;3028306;-67
2022/07/22 08:03:43;;;;;;;;;;;;;;;19.87;63.81;98756.21;25075;1315;3051406;-65
2022/07/22 08:06:12;;;;;;;9.80;4.90;;;;;;;19.89;63.51;98765.19;25075;1315;3026783;-63
2022/07/22 08:08:44;;;;;;;10.20;4.50;;;;;;;19.89;62.92;98759.90;25188;1315;3069937;-68
2022/07/22 08:11:19;;;;;;;9.00;4.40;;;;;;;19.93;62.83;98766.36;25141;1315;3050921;-63
2022/07/22 08:14:16;;;;;;;5.60;3.50;;;;;;;19.99;63.04;98768.71;25128;1315;3052332;-65
2022/07/22 08:17:06;;;;;;;5.00;2.80;;;;;;;20.19;62.71;98761.91;25086;1316;3055535;-65
2022/07/22 08:19:38;;;;;;;5.80;3.00;;;;;;;20.30;62.33;98764.64;25100;1315;3026454;-66
2022/07/22 08:22:08;;;;;;;6.20;3.30;;;;;;;20.38;62.12;98765.14;25203;1315;3026146;-66
2022/07/22 08:24:37;;;;;;;9.80;4.10;;;;;;;20.35;61.80;98771.89;25097;1315;3051282;-66
2022/07/22 08:27:12;;;;;;;6.20;3.60;;;;;;;20.51;61.52;98768.41;25140;1315;3055119;-68
2022/07/22 08:29:42;;;;;;;10.00;4.60;;;;;;;20.65;60.44;98763.65;25036;1315;3026575;-67
2022/07/22 08:32:12;;;;;;;6.00;2.90;;;;;;;20.67;60.77;98785.54;25173;1315;3027055;-66
2022/07/22 08:34:41;;;;;;;8.20;2.90;;;;;;;20.39;61.31;98771.60;25064;1316;3026701;-69
2022/07/22 08:37:11;;;;;;;4.10;3.00;;;;;;;20.16;62.24;98777.33;25091;1315;3026985;-68
2022/07/22 08:39:40;;;;;;;4.10;3.10;;;;;;;20.09;62.89;98775.48;25114;1315;3029757;-65
2022/07/22 08:42:09;;;;;;;3.30;2.60;;;;;;;20.20;62.81;98769.98;25144;1315;3051098;-67
2022/07/22 08:44:39;;;;;;;8.70;2.40;;;;;;;20.21;62.19;98772.95;25111;1315;3027462;-68
2022/07/22 08:47:08;;;;;;;6.10;2.90;;;;;;;20.26;61.95;98774.13;25236;1315;3054894;-71
2022/07/22 08:50:04;;;;;;;5.70;3.00;;;;;;;20.27;61.56;98767.61;25126;1316;3054233;-68
2022/07/22 08:52:57;;;;;;;5.00;2.40;;;;;;;20.55;60.84;98767.14;25163;1315;3068263;-68
2022/07/22 08:55:26;;;;;;;3.30;2.50;;;;;;;20.59;59.25;98765.77;25185;1315;3026643;-71
2022/07/22 08:57:55;;;;;;;8.80;2.50;;;;;;;20.58;59.48;98766.25;25134;1316;3029149;-72
2022/07/22 09:00:24;;;;;;;4.70;2.80;;;;;;;20.52;60.05;98777.13;25130;1316;3070719;-71
2022/07/22 09:02:54;;;;;;;6.10;3.30;;;;;;;20.46;59.61;98770.61;25274;1315;3027015;-70
2022/07/22 09:05:23;;;;;;;5.50;2.30;;;;;;;20.37;59.45;98773.75;25173;1315;3050562;-65
2022/07/22 09:07:56;;;;;;;3.40;2.30;;;;;;;20.38;59.60;98767.24;25169;1316;3026843;-71
2022/07/22 09:10:34;;;;;;;4.60;2.90;;;;;;;20.46;59.97;98777.01;25113;1315;3049264;-63
2022/07/22 09:13:11;;;;;;;5.30;3.20;;;;;;;20.55;59.53;98770.33;25044;1315;3054735;-61
2022/07/22 09:15:51;;;;;;;3.90;2.40;;;;;;;20.36;60.10;98777.83;25089;1315;3026756;-63
2022/07/22 09:18:49;;;;;;;6.50;2.60;;;;;;;20.33;60.22;98782.52;25073;1315;3059372;-64
2022/07/22 09:21:45;;;;;;;4.20;2.10;;;;;;;20.51;59.65;98791.20;24972;1315;3052144;-67
2022/07/22 09:24:31;;;;;;;3.60;2.50;;;;;;;20.45;58.57;98780.02;25064;1315;3054309;-63
2022/07/22 09:27:25;;;;;;;7.00;2.30;;;;;;;20.56;58.03;98781.56;25068;1315;3054686;-65
2022/07/22 09:30:21;;;;;;;5.10;2.50;;;;;;;20.77;57.65;98781.67;25028;1316;3071315;-62
2022/07/22 09:32:56;;;;;;;6.20;2.00;;;;;;;20.95;56.17;98783.66;25070;1315;3052252;-67
2022/07/22 09:35:44;;;;;;;4.40;2.30;;;;;;;21.19;55.77;98776.24;25148;1315;3054496;-64
2022/07/22 09:38:14;;;;;;;4.80;2.30;;;;;;;21.41;55.29;98780.41;25123;1315;3026525;-64
2022/07/22 09:40:45;;;;;;;3.10;2.10;;;;;;;21.31;55.51;98791.34;25137;1315;3026361;-64
2022/07/22 09:43:17;;;;;;;2.10;1.90;;;;;;;21.12;55.81;98793.19;25184;1316;3027312;-63
2022/07/22 09:45:49;;;;;;;4.40;2.10;;;;;;;21.13;56.19;98786.86;25090;1315;3028704;-63
2022/07/22 09:48:19;;;;;;;4.30;2.40;;;;;;;21.13;56.46;98782.46;25220;1315;3026421;-62
2022/07/22 09:51:07;;;;;;;2.70;2.40;;;;;;;21.18;56.41;98779.77;25056;1315;3069573;-63
2022/07/22 09:53:57;;;;;;;3.70;2.10;;;;;;;21.49;56.04;98778.65;25113;1315;3048930;-61
2022/07/22 09:56:30;;;;;;;4.80;2.50;;;;;;;21.58;55.60;98778.69;25037;1316;3052359;-65
2022/07/22 09:58:59;;;;;;;3.50;2.20;;;;;;;21.72;55.59;98778.55;25013;1315;3026540;-61
2022/07/22 10:01:36;;;;;;;4.70;2.60;;;;;;;21.73;55.28;98777.15;25133;1315;3059257;-63
2022/07/22 10:04:06;;;;;;;3.10;2.30;;;;;;;21.90;53.81;98781.38;25056;1319;3026642;-64
2022/07/22 10:06:37;;;;;;;7.30;2.30;;;;;;;22.27;53.55;98782.05;25073;1315;3026552;-62
2022/07/22 10:09:07;;;;;;;3.60;2.60;;;;;;;22.26;53.28;98783.31;25130;1315;3026818;-65
2022/07/22 10:11:37;;;;;;;9.60;3.30;;;;;;;22.14;54.06;98779.52;25016;1316;3028573;-63
2022/07/22 10:14:08;;;;;;;6.50;3.70;;;;;;;21.88;53.83;98781.24;25073;1315;3026428;-64
2022/07/22 10:16:38;;;;;;;6.60;3.50;;;;;;;21.97;54.10;98782.33;25127;1316;3026257;-62
2022/07/22 10:19:25;;;;;;;7.60;2.80;;;;;;;21.79;53.53;98792.02;25060;1316;3070067;-64
2022/07/22 10:21:54;;;;;;;3.30;2.30;;;;;;;21.44;55.04;98791.11;25092;1315;3027544;-64
2022/07/22 10:24:23;;;;;;;5.80;2.60;;;;;;;21.39;55.93;98784.94;25039;1315;3026361;-64
2022/07/22 10:27:01;;;;;;;5.50;1.90;;;;;;;21.34;56.64;98790.52;25068;1315;3068806;-64
2022/07/22 10:29:44;;;;;;;3.50;2.40;;;;;;;21.29;56.56;98791.58;25105;1315;3026562;-61
2022/07/22 10:32:21;;;;;;;4.70;2.80;;;;;;;21.42;56.47;98793.70;25071;1315;3054025;-63
2022/07/22 10:35:03;;;;;;;8.90;2.60;;;;;;;21.71;55.94;98787.83;25115;1315;3070939;-59
2022/07/22 10:37:42;;;;;;;2.90;2.10;;;;;;;21.94;55.44;98790.52;25067;1315;3049348;-63
2022/07/22 10:40:22;;;;;;;3.80;1.90;;;;;;;21.89;54.86;98789.33;25076;1315;3053857;-65
2022/07/22 10:43:00;;;;;;;4.90;2.00;;;;;;;21.65;55.14;98779.50;25051;1316;3055467;-61
2022/07/22 10:45:46;;;;;;;4.10;2.20;;;;;;;21.71;54.06;98793.88;25047;1315;3057595;-64
2022/07/22 10:48:17;;;;;;;2.90;1.90;;;;;;;22.00;53.42;98784.34;25025;1315;3053991;-64
2022/07/22 10:50:51;;;;;;;2.10;1.50;;;;;;;22.20;53.04;98779.35;25087;1316;3026999;-59
2022/07/22 10:53:25;;;;;;;3.10;2.00;;;;;;;21.96;53.23;98789.92;25101;1316;3053419;-62
2022/07/22 10:56:02;;;;;;;4.50;2.00;;;;;;;21.86;53.89;98791.96;25094;1315;3026798;-61
2022/07/22 10:58:34;;;;;;;7.70;2.70;;;;;;;21.99;54.05;98786.98;25043;1315;3048804;-63
2022/07/22 11:01:05;;;;;;;4.00;2.10;;;;;;;22.41;53.39;98789.04;25093;1314;3026755;-64
2022/07/22 11:03:35;;;;;;;3.40;2.40;;;;;;;22.64;51.82;98784.27;25084;1316;3026681;-63
2022/07/22 11:06:19;;;;;;;6.50;2.40;;;;;;;22.59;51.13;98793.64;25084;1315;3027369;-65
2022/07/22 11:08:50;;;;;;;2.50;1.50;;;;;;;22.69;49.67;98795.95;25100;1316;3050230;-64
2022/07/22 11:11:40;;;;;;;3.00;1.80;;;;;;;23.02;48.38;98788.65;25082;1316;3026634;-62
2022/07/22 11:14:13;;;;;;;5.20;1.60;;;;;;;23.34;48.15;98787.62;25311;1315;3051250;-62
2022/07/22 11:16:44;;;;;;;;;;;;;;;23.17;49.08;98793.16;25094;1315;3069810;-59
2022/07/22 11:19:13;;;;;;;5.30;1.50;;;;;;;22.83;48.38;98794.91;25093;1316;3027060;-62
2022/07/22 11:21:55;;;;;;;6.20;2.60;;;;;;;22.87;48.36;98796.64;25087;1316;3026584;-62
2022/07/22 11:24:24;;;;;;;3.70;2.50;;;;;;;22.86;48.37;98790.52;25097;1315;3055635;-62
2022/07/22 11:26:58;;;;;;;3.30;1.60;;;;;;;22.81;49.67;98794.14;25029;1315;3027042;-64
2022/07/22 11:29:27;;;;;;;6.20;1.70;;;;;;;22.55;50.49;98798.33;25095;1315;3026722;-64
2022/07/22 11:31:59;;;;;;;3.80;1.40;;;;;;;22.33;50.01;98798.81;25275;1316;3026465;-65
2022/07/22 11:34:28;;;;;;;5.20;1.70;;;;;;;22.20;50.57;98797.59;24771;1315;3552346;-63
2022/07/22 11:36:58;;;;;;;5.20;2.40;;;;;;;22.22;50.72;98798.07;25025;1316;3026841;-65
2022/07/22 11:39:28;;;;;;;5.30;2.20;;;;;;;22.09;51.71;98798.32;25089;1315;3055024;-62
2022/07/22 11:41:58;;;;;;;5.80;2.10;;;;;;;22.02;52.45;98800.58;25115;1315;3026633;-62